Time;durP1;ratioP1;P1;durP2;ratioP2;P2;SDS_P1;SDS_P2;PMS_P1;PMS_P2;Temp;Humidity;BMP_temperature;BMP_pressure;BME280_temperature;BME280_humidity;BME280_pressure;Samples;Min_cycle;Max_cycle;Signal;HPM_P1;HPM_P2
2022/11/27 00:01:55;;;;;;;20.02;11.43;;;0.50;67.60;;;;;;5033273;28;20029;-68
2022/11/27 00:04:20;;;;;;;20.67;10.00;;;0.60;67.40;;;;;;5032040;28;20017;-67
2022/11/27 00:06:46;;;;;;;27.00;13.43;;;0.70;66.70;;;;;;5030816;28;20033;-67
2022/11/27 00:09:14;;;;;;;29.23;13.43;;;0.80;67.30;;;;;;5010589;28;20051;-67
2022/11/27 00:11:40;;;;;;;19.02;11.68;;;0.70;68.10;;;;;;5010992;28;20029;-67
2022/11/27 00:14:09;;;;;;;22.55;11.98;;;0.60;68.40;;;;;;5010324;28;20044;-66
2022/11/27 00:16:35;;;;;;;24.95;11.60;;;0.60;68.00;;;;;;5009797;28;20034;-67
2022/11/27 00:19:01;;;;;;;25.23;11.77;;;0.60;68.20;;;;;;5017440;28;20619;-67
2022/11/27 00:21:29;;;;;;;20.63;12.23;;;0.50;68.70;;;;;;5009407;28;20033;-67
2022/11/27 00:23:57;;;;;;;20.33;10.88;;;0.30;69.40;;;;;;5009615;28;20116;-68
2022/11/27 00:26:23;;;;;;;28.85;13.32;;;0.40;67.70;;;;;;5009954;28;20037;-67
2022/11/27 00:28:49;;;;;;;23.30;11.90;;;0.60;67.00;;;;;;5029223;28;20108;-67
2022/11/27 00:31:20;;;;;;;19.25;10.68;;;0.60;67.60;;;;;;5022935;28;20040;-66
2022/11/27 00:33:46;;;;;;;23.48;11.55;;;0.60;68.40;;;;;;5023196;28;20065;-67
2022/11/27 00:36:13;;;;;;;27.92;12.57;;;0.50;68.70;;;;;;5033797;28;20117;-68
2022/11/27 00:38:39;;;;;;;17.98;9.38;;;0.20;71.40;;;;;;5030571;28;20021;-68
2022/11/27 00:41:10;;;;;;;22.05;10.02;;;0.00;70.80;;;;;;5031947;28;20429;-67
2022/11/27 00:43:36;;;;;;;20.30;10.10;;;0.00;69.30;;;;;;5026612;28;20022;-67
2022/11/27 00:46:02;;;;;;;19.13;9.20;;;0.10;69.10;;;;;;5035650;28;20063;-67
2022/11/27 00:48:28;;;;;;;26.10;9.23;;;0.80;66.10;;;;;;5030683;28;20481;-67
2022/11/27 00:51:06;;;;;;;17.13;8.25;;;1.40;66.30;;;;;;5025939;28;20590;-67
2022/11/27 00:53:32;;;;;;;18.08;8.50;;;1.70;66.50;;;;;;5032096;28;20029;-67
2022/11/27 00:55:58;;;;;;;21.92;8.82;;;2.00;67.00;;;;;;5035556;28;20318;-67
2022/11/27 00:58:25;;;;;;;21.75;8.98;;;2.20;67.90;;;;;;5018056;28;20025;-67
2022/11/27 01:00:55;;;;;;;14.90;6.57;;;2.30;69.90;;;;;;5039292;28;20020;-68
2022/11/27 01:03:22;;;;;;;22.35;6.82;;;2.60;72.60;;;;;;5015508;28;20040;-68
2022/11/27 01:05:47;;;;;;;16.38;7.28;;;2.60;78.70;;;;;;5030100;28;20060;-67
2022/11/27 01:08:13;;;;;;;16.30;6.38;;;2.70;81.90;;;;;;5030261;28;20054;-67
2022/11/27 01:10:39;;;;;;;11.02;5.70;;;2.70;84.80;;;;;;5035744;28;20130;-67
2022/11/27 01:13:04;;;;;;;15.05;6.75;;;2.80;85.90;;;;;;5019186;28;20030;-67
2022/11/27 01:15:30;;;;;;;19.40;6.85;;;2.70;86.80;;;;;;5022716;28;20337;-66
2022/11/27 01:17:58;;;;;;;13.93;5.50;;;2.80;87.30;;;;;;5034498;28;20302;-67
2022/11/27 01:20:24;;;;;;;14.05;5.63;;;2.80;88.30;;;;;;5026600;28;20323;-67
2022/11/27 01:22:49;;;;;;;13.05;5.63;;;2.90;89.30;;;;;;5024631;28;20042;-67
2022/11/27 01:25:15;;;;;;;15.00;5.70;;;2.90;90.70;;;;;;5002102;28;20361;-67
2022/11/27 01:27:40;;;;;;;14.20;6.10;;;2.90;91.60;;;;;;5017710;28;20048;-67
2022/11/27 01:30:07;;;;;;;17.25;4.78;;;2.90;92.20;;;;;;5039839;28;20029;-67
2022/11/27 01:32:32;;;;;;;12.45;5.75;;;2.90;92.00;;;;;;5037134;28;20317;-68
2022/11/27 01:34:58;;;;;;;12.48;5.72;;;2.90;92.50;;;;;;5025964;28;20034;-67
2022/11/27 01:37:23;;;;;;;15.13;6.03;;;2.80;93.00;;;;;;5030018;28;20492;-67
2022/11/27 01:39:49;;;;;;;13.75;5.45;;;2.80;93.00;;;;;;5016439;28;20323;-67
2022/11/27 01:42:14;;;;;;;15.57;5.75;;;2.80;92.80;;;;;;5020535;28;20022;-67
2022/11/27 01:44:49;;;;;;;15.90;5.50;;;2.80;93.50;;;;;;5028233;28;20084;-67
2022/11/27 01:47:30;;;;;;;12.32;6.38;;;2.90;93.90;;;;;;5018813;28;20028;-67
2022/11/27 01:50:03;;;;;;;23.17;7.10;;;3.00;94.60;;;;;;5024819;28;20079;-66
2022/11/27 01:52:34;;;;;;;12.57;6.38;;;2.90;94.90;;;;;;5032762;28;20029;-66
2022/11/27 01:55:28;;;;;;;13.50;6.28;;;2.90;94.20;;;;;;5035019;28;20037;-65
2022/11/27 01:58:06;;;;;;;17.60;6.85;;;2.90;94.70;;;;;;5024265;28;20076;-68
2022/11/27 02:00:31;;;;;;;12.23;6.18;;;2.90;95.00;;;;;;5025675;28;20032;-67
2022/11/27 02:02:57;;;;;;;12.40;6.10;;;2.90;94.90;;;;;;5029675;28;20037;-68
2022/11/27 02:05:25;;;;;;;17.00;6.10;;;2.90;95.30;;;;;;5017340;28;20109;-67
2022/11/27 02:07:52;;;;;;;11.13;4.85;;;2.90;95.80;;;;;;5027068;28;20021;-67
2022/11/27 02:10:18;;;;;;;13.23;4.88;;;2.90;96.20;;;;;;5022875;28;20299;-67
2022/11/27 02:13:21;;;;;;;15.23;5.18;;;2.90;96.90;;;;;;5028714;28;21405;-67
2022/11/27 02:15:57;;;;;;;10.73;4.88;;;2.90;96.90;;;;;;5019397;28;20042;-67
2022/11/27 02:18:32;;;;;;;13.02;4.70;;;3.00;97.40;;;;;;5042113;28;20411;-67
2022/11/27 02:21:01;;;;;;;13.25;5.10;;;3.00;97.90;;;;;;5027396;28;20045;-67
2022/11/27 02:23:48;;;;;;;11.75;4.65;;;3.10;98.00;;;;;;5028984;28;20045;-67
2022/11/27 02:26:35;;;;;;;8.63;4.15;;;3.10;98.00;;;;;;5009613;28;20029;-67
2022/11/27 02:29:00;;;;;;;15.20;5.18;;;3.20;98.00;;;;;;5004090;28;20038;-68
2022/11/27 02:31:49;;;;;;;12.70;5.35;;;3.20;98.00;;;;;;5013944;28;20057;-67
2022/11/27 02:34:44;;;;;;;10.27;4.43;;;3.10;98.00;;;;;;4999492;28;20025;-67
2022/11/27 02:37:28;;;;;;;;;;;3.10;98.00;;;;;;5004457;28;20433;-66
2022/11/27 02:40:09;;;;;;;11.82;4.68;;;3.10;98.00;;;;;;5002908;28;19959;-66
2022/11/27 02:42:43;;;;;;;11.40;5.30;;;3.20;98.00;;;;;;5007106;28;20117;-67
2022/11/27 02:45:13;;;;;;;12.70;5.18;;;3.20;98.00;;;;;;4996253;28;20037;-67
2022/11/27 02:47:41;;;;;;;10.88;3.92;;;3.10;98.00;;;;;;5003627;28;20034;-67
2022/11/27 02:50:18;;;;;;;10.82;4.72;;;3.00;98.00;;;;;;4996414;28;20038;-68
2022/11/27 02:52:45;;;;;;;11.75;3.88;;;3.00;98.00;;;;;;5013097;28;20477;-67
2022/11/27 02:55:16;;;;;;;12.23;4.88;;;2.90;98.00;;;;;;5016789;28;20423;-67
2022/11/27 02:57:42;;;;;;;13.93;5.30;;;2.90;98.00;;;;;;5008028;28;20125;-67
2022/11/27 03:00:10;;;;;;;13.93;4.63;;;2.90;98.00;;;;;;5012709;28;20026;-67
2022/11/27 03:02:42;;;;;;;11.05;4.55;;;2.80;98.00;;;;;;5003532;28;20477;-67
2022/11/27 03:05:12;;;;;;;11.65;5.03;;;2.70;98.00;;;;;;5010228;28;20032;-67
2022/11/27 03:08:04;;;;;;;12.63;5.57;;;2.60;98.00;;;;;;5018965;28;20050;-66
2022/11/27 03:10:42;;;;;;;10.65;5.38;;;2.50;98.00;;;;;;5000007;28;20026;-67
2022/11/27 03:13:08;;;;;;;11.23;6.32;;;2.20;98.00;;;;;;5004485;28;20402;-66
2022/11/27 03:16:14;;;;;;;10.77;5.65;;;1.80;98.00;;;;;;5004992;28;20060;-67
2022/11/27 03:19:09;;;;;;;14.23;6.68;;;1.40;97.20;;;;;;5006530;28;20331;-67
2022/11/27 03:21:41;;;;;;;15.32;8.15;;;1.20;95.40;;;;;;5013882;28;20022;-67
2022/11/27 03:24:07;;;;;;;13.38;7.05;;;1.00;94.10;;;;;;5026715;28;20032;-67
2022/11/27 03:26:33;;;;;;;19.00;8.10;;;0.90;92.60;;;;;;5028888;28;20048;-67
2022/11/27 03:29:02;;;;;;;11.75;6.45;;;0.80;92.30;;;;;;5025354;28;20060;-67
2022/11/27 03:31:29;;;;;;;12.95;6.68;;;0.80;90.80;;;;;;5024802;28;20030;-67
2022/11/27 03:33:54;;;;;;;13.05;7.15;;;0.80;89.50;;;;;;5029361;28;20038;-67
2022/11/27 03:36:21;;;;;;;11.20;6.13;;;0.80;89.90;;;;;;5026661;28;20309;-67
2022/11/27 03:38:49;;;;;;;17.35;7.10;;;0.70;90.40;;;;;;5033147;28;20041;-67
2022/11/27 03:41:26;;;;;;;11.93;6.95;;;0.70;88.10;;;;;;5029101;28;20017;-67
2022/11/27 03:44:25;;;;;;;15.95;8.02;;;0.70;88.50;;;;;;5023049;28;20048;-67
2022/11/27 03:47:15;;;;;;;13.60;4.95;;;0.60;87.60;;;;;;5013605;28;20312;-66
2022/11/27 03:50:01;;;;;;;16.05;6.60;;;1.10;84.30;;;;;;5025421;28;20083;-67
2022/11/27 03:52:42;;;;;;;11.40;5.47;;;1.10;88.90;;;;;;5031648;28;20034;-67
2022/11/27 03:55:25;;;;;;;16.08;7.15;;;1.00;88.50;;;;;;5029429;28;20024;-67
2022/11/27 03:58:05;;;;;;;11.30;6.38;;;0.80;90.30;;;;;;5041713;28;20124;-67
2022/11/27 04:00:36;;;;;;;17.13;7.03;;;0.70;90.90;;;;;;5026114;28;20075;-67
2022/11/27 04:03:02;;;;;;;13.23;7.00;;;0.50;90.20;;;;;;5030669;28;20021;-67
2022/11/27 04:05:34;;;;;;;15.55;7.18;;;0.40;87.80;;;;;;5035818;28;20414;-67
2022/11/27 04:07:59;;;;;;;21.65;10.55;;;0.40;89.00;;;;;;5029734;28;20338;-67
2022/11/27 04:10:25;;;;;;;15.95;9.07;;;0.30;88.50;;;;;;5024857;28;20025;-67
2022/11/27 04:12:50;;;;;;;17.20;9.63;;;0.10;88.20;;;;;;5019984;28;20437;-67
2022/11/27 04:15:16;;;;;;;18.17;8.32;;;0.00;87.40;;;;;;5021199;28;20308;-67
2022/11/27 04:17:41;;;;;;;13.48;7.97;;;0.00;86.70;;;;;;5020301;28;20029;-67
2022/11/27 04:20:07;;;;;;;43.58;21.73;;;0.00;85.60;;;;;;5023877;28;20064;-67
2022/11/27 04:22:33;;;;;;;48.33;24.92;;;0.00;86.00;;;;;;5023479;28;20095;-67
2022/11/27 04:24:59;;;;;;;80.20;38.50;;;0.00;86.30;;;;;;5019136;28;20344;-67
2022/11/27 04:27:24;;;;;;;127.28;59.95;;;-0.10;85.70;;;;;;5035068;28;20033;-67
2022/11/27 04:29:50;;;;;;;39.15;19.70;;;-0.20;85.40;;;;;;5025244;28;20120;-67
2022/11/27 04:32:16;;;;;;;52.95;28.60;;;0.00;83.40;;;;;;5020753;28;20034;-67
2022/11/27 04:34:44;;;;;;;51.38;26.52;;;0.00;84.50;;;;;;5029102;28;20330;-67
2022/11/27 04:37:10;;;;;;;23.58;12.82;;;0.00;84.30;;;;;;5024313;28;20030;-67
2022/11/27 04:39:35;;;;;;;26.88;14.43;;;0.00;82.00;;;;;;5026000;28;20045;-67
2022/11/27 04:42:01;;;;;;;25.08;12.07;;;0.10;84.30;;;;;;5023127;28;20030;-66
2022/11/27 04:44:27;;;;;;;20.58;9.98;;;0.00;83.90;;;;;;5032277;28;20024;-67
2022/11/27 04:46:52;;;;;;;16.15;8.30;;;0.10;84.00;;;;;;5031878;28;20323;-66
2022/11/27 04:49:18;;;;;;;13.15;7.72;;;0.00;86.10;;;;;;5035208;28;20056;-66
2022/11/27 04:51:44;;;;;;;11.20;6.10;;;0.00;85.50;;;;;;5026905;28;20422;-66
2022/11/27 04:54:10;;;;;;;14.35;8.00;;;0.00;85.30;;;;;;5039626;28;20045;-68
2022/11/27 04:56:36;;;;;;;13.40;7.43;;;-0.10;87.10;;;;;;5034794;28;20044;-68
2022/11/27 04:59:01;;;;;;;16.30;8.75;;;-0.30;86.70;;;;;;5028700;28;20325;-67
2022/11/27 05:01:27;;;;;;;17.73;8.32;;;-0.40;85.90;;;;;;5029083;28;20037;-67
2022/11/27 05:03:52;;;;;;;14.90;6.55;;;-0.30;84.80;;;;;;5025834;28;20040;-67
2022/11/27 05:06:21;;;;;;;12.30;7.35;;;0.00;81.50;;;;;;5023747;28;20116;-67
2022/11/27 05:08:47;;;;;;;11.95;6.85;;;0.10;87.10;;;;;;5028068;28;20041;-67
2022/11/27 05:11:15;;;;;;;15.52;8.80;;;0.00;88.10;;;;;;5029886;28;20473;-67
2022/11/27 05:13:41;;;;;;;13.80;6.00;;;-0.10;88.60;;;;;;5029231;28;20453;-66
2022/11/27 05:16:07;;;;;;;12.43;6.70;;;-0.10;86.00;;;;;;5030914;28;20323;-66
2022/11/27 05:18:33;;;;;;;11.27;5.82;;;0.10;87.10;;;;;;5031949;28;20030;-67
2022/11/27 05:21:02;;;;;;;10.70;6.15;;;0.60;85.30;;;;;;5023351;28;20079;-67
2022/11/27 05:23:28;;;;;;;11.10;5.50;;;0.70;91.10;;;;;;5034668;28;20048;-66
2022/11/27 05:25:54;;;;;;;8.43;4.30;;;0.70;91.20;;;;;;5031690;28;20037;-66
2022/11/27 05:28:21;;;;;;;5.63;3.00;;;0.80;91.80;;;;;;5043265;28;20029;-66
2022/11/27 05:30:47;;;;;;;6.72;3.55;;;1.20;93.30;;;;;;5007177;28;20378;-66
2022/11/27 05:33:13;;;;;;;6.13;2.97;;;1.50;96.40;;;;;;5032638;28;20030;-66
2022/11/27 05:35:39;;;;;;;5.57;3.15;;;1.70;98.00;;;;;;5018640;28;20080;-66
2022/11/27 05:38:05;;;;;;;7.85;3.90;;;2.10;98.00;;;;;;5023123;28;20021;-66
2022/11/27 05:40:31;;;;;;;10.35;4.15;;;2.40;98.00;;;;;;5027324;28;20033;-66
2022/11/27 05:42:56;;;;;;;10.82;6.25;;;2.20;98.00;;;;;;5034598;28;20027;-66
2022/11/27 05:45:22;;;;;;;11.38;6.88;;;1.90;98.00;;;;;;5022183;28;20026;-66
2022/11/27 05:47:47;;;;;;;12.82;7.50;;;1.40;98.00;;;;;;5024771;28;20034;-66
2022/11/27 05:50:13;;;;;;;12.82;7.00;;;1.00;98.00;;;;;;5031301;28;20401;-66
2022/11/27 05:52:39;;;;;;;13.07;8.32;;;0.60;98.00;;;;;;5016194;28;20378;-66
2022/11/27 05:55:05;;;;;;;11.95;7.45;;;0.20;97.80;;;;;;5001167;28;20117;-65
2022/11/27 05:57:30;;;;;;;13.88;7.90;;;-0.10;97.10;;;;;;5035478;28;20033;-66
2022/11/27 05:59:57;;;;;;;14.80;8.70;;;-0.30;95.60;;;;;;5027793;28;20310;-66
2022/11/27 06:02:23;;;;;;;13.13;7.60;;;-0.40;94.20;;;;;;5019681;28;20022;-66
2022/11/27 06:04:49;;;;;;;14.60;9.32;;;-0.60;92.90;;;;;;5033107;28;20076;-67
2022/11/27 06:07:15;;;;;;;12.20;7.88;;;-0.70;93.10;;;;;;5032804;28;20041;-66
2022/11/27 06:09:40;;;;;;;16.35;8.40;;;-0.90;92.20;;;;;;5035029;28;20053;-65
2022/11/27 06:12:06;;;;;;;20.63;13.30;;;-1.00;91.20;;;;;;5019667;28;20025;-66
2022/11/27 06:14:33;;;;;;;16.90;11.15;;;-1.10;89.70;;;;;;5017773;28;20060;-66
2022/11/27 06:17:00;;;;;;;16.05;9.90;;;-1.20;89.00;;;;;;5026088;28;20029;-66
2022/11/27 06:19:25;;;;;;;16.17;10.45;;;-1.30;87.00;;;;;;5034813;28;20026;-66
2022/11/27 06:21:51;;;;;;;20.13;12.20;;;-1.40;87.20;;;;;;5031595;28;20449;-66
2022/11/27 06:24:16;;;;;;;16.73;10.10;;;-1.50;85.90;;;;;;5022950;28;20321;-66
2022/11/27 06:26:42;;;;;;;19.13;10.20;;;-1.50;84.80;;;;;;5033383;28;20064;-66
2022/11/27 06:29:08;;;;;;;13.77;8.70;;;-1.50;84.30;;;;;;5031943;28;20487;-66
2022/11/27 06:31:34;;;;;;;18.58;10.93;;;-1.50;82.70;;;;;;5028633;28;20034;-66
2022/11/27 06:34:01;;;;;;;19.67;9.65;;;-1.40;82.70;;;;;;4996877;28;20057;-66
2022/11/27 06:36:33;;;;;;;14.35;9.13;;;-1.40;81.60;;;;;;5027294;28;20052;-67
2022/11/27 06:38:59;;;;;;;20.27;12.65;;;-1.50;81.10;;;;;;5029341;28;20029;-65
2022/11/27 06:41:26;;;;;;;18.55;11.45;;;-1.40;80.40;;;;;;5029880;28;20061;-67
2022/11/27 06:43:53;;;;;;;13.50;9.43;;;-1.40;80.60;;;;;;5024383;28;20022;-66
2022/11/27 06:46:20;;;;;;;17.95;10.68;;;-1.40;80.60;;;;;;5030458;28;20037;-66
2022/11/27 06:48:49;;;;;;;16.42;9.80;;;-1.30;78.40;;;;;;5032388;28;20064;-66
2022/11/27 06:51:20;;;;;;;16.13;10.38;;;-1.20;78.20;;;;;;5028474;28;20037;-65
2022/11/27 06:53:46;;;;;;;19.10;10.73;;;-1.20;79.10;;;;;;5034101;28;20042;-66
2022/11/27 06:56:16;;;;;;;24.23;14.40;;;-1.20;80.00;;;;;;5025112;28;20033;-66
2022/11/27 06:58:42;;;;;;;18.48;12.80;;;-1.10;78.80;;;;;;5012029;28;20318;-66
2022/11/27 07:01:13;;;;;;;17.70;8.82;;;-1.20;80.20;;;;;;5031100;28;20029;-66
2022/11/27 07:03:39;;;;;;;14.05;7.75;;;-1.30;79.80;;;;;;5016080;28;20037;-66
2022/11/27 07:06:07;;;;;;;13.20;7.68;;;-1.30;79.00;;;;;;5017075;28;20072;-65
2022/11/27 07:08:34;;;;;;;18.70;10.93;;;-1.30;78.80;;;;;;5032764;28;20375;-66
2022/11/27 07:11:22;;;;;;;20.10;11.15;;;-1.10;76.90;;;;;;5025913;28;20030;-66
2022/11/27 07:13:49;;;;;;;12.43;8.13;;;-0.90;76.60;;;;;;5016268;28;20346;-65
2022/11/27 07:16:16;;;;;;;14.50;9.10;;;-0.80;76.70;;;;;;5020518;28;20088;-66
2022/11/27 07:18:48;;;;;;;14.95;8.15;;;-0.70;77.00;;;;;;5030489;28;20025;-66
2022/11/27 07:21:14;;;;;;;9.63;6.53;;;-0.40;75.60;;;;;;5030920;28;20076;-66
2022/11/27 07:23:40;;;;;;;9.38;5.57;;;-0.30;78.00;;;;;;5031508;28;20056;-66
2022/11/27 07:26:08;;;;;;;11.02;6.32;;;-0.20;78.30;;;;;;5025244;28;20485;-66
2022/11/27 07:28:33;;;;;;;9.95;6.20;;;-0.10;79.80;;;;;;5029905;28;20461;-65
2022/11/27 07:30:59;;;;;;;11.80;6.50;;;0.00;80.70;;;;;;5021231;28;20033;-66
2022/11/27 07:33:28;;;;;;;13.70;6.55;;;0.00;80.30;;;;;;5034139;28;20034;-66
2022/11/27 07:36:21;;;;;;;10.77;5.38;;;0.30;78.70;;;;;;5049124;28;20068;-66
2022/11/27 07:38:47;;;;;;;13.45;7.80;;;0.70;85.30;;;;;;5017693;28;20030;-65
2022/11/27 07:41:14;;;;;;;13.73;8.15;;;0.80;88.70;;;;;;5021271;28;20071;-65
2022/11/27 07:43:42;;;;;;;10.90;7.05;;;0.90;88.80;;;;;;5030384;28;20032;-66
2022/11/27 07:46:17;;;;;;;10.60;7.10;;;0.80;89.70;;;;;;5035715;28;20079;-65
2022/11/27 07:48:43;;;;;;;12.10;7.30;;;0.90;90.10;;;;;;5035130;28;20441;-68
2022/11/27 07:51:11;;;;;;;11.55;6.65;;;1.00;90.30;;;;;;5038639;28;20438;-67
2022/11/27 07:53:38;;;;;;;11.48;6.50;;;1.20;91.00;;;;;;5052881;28;20033;-65
2022/11/27 07:56:05;;;;;;;9.55;5.15;;;1.20;93.30;;;;;;5036311;28;20025;-66
2022/11/27 07:58:31;;;;;;;9.88;4.45;;;1.50;95.40;;;;;;5033457;28;20053;-66
2022/11/27 08:00:57;;;;;;;7.80;4.30;;;1.70;97.00;;;;;;5031575;28;20064;-65
2022/11/27 08:03:23;;;;;;;8.30;4.65;;;1.70;98.00;;;;;;5040354;28;20425;-66
2022/11/27 08:05:52;;;;;;;15.07;9.40;;;2.00;98.00;;;;;;5027258;28;20370;-66
2022/11/27 08:08:17;;;;;;;22.08;10.68;;;2.30;98.00;;;;;;5026811;28;20038;-67
2022/11/27 08:10:43;;;;;;;19.63;8.60;;;2.80;98.00;;;;;;5038175;28;20299;-65
2022/11/27 08:13:09;;;;;;;12.07;5.45;;;3.30;98.00;;;;;;5040289;28;20034;-65
2022/11/27 08:15:36;;;;;;;16.08;8.82;;;3.80;98.00;;;;;;5015844;28;20100;-66
2022/11/27 08:18:01;;;;;;;9.98;5.50;;;4.40;98.00;;;;;;5035013;28;20037;-64
2022/11/27 08:20:27;;;;;;;15.05;5.65;;;5.00;98.00;;;;;;5038507;28;20022;-66
2022/11/27 08:22:52;;;;;;;11.77;5.40;;;6.40;98.00;;;;;;5037441;28;20037;-65
2022/11/27 08:25:18;;;;;;;8.05;4.22;;;7.70;98.00;;;;;;5017272;28;20116;-66
2022/11/27 08:27:45;;;;;;;5.85;3.53;;;8.20;89.40;;;;;;5030570;28;20443;-65
2022/11/27 08:30:11;;;;;;;5.90;3.20;;;8.50;85.60;;;;;;5028712;28;20040;-64
2022/11/27 08:32:40;;;;;;;5.07;2.85;;;8.90;82.00;;;;;;5034344;28;20030;-65
2022/11/27 08:35:07;;;;;;;7.03;3.75;;;8.70;81.90;;;;;;5033882;28;20151;-66
2022/11/27 08:37:32;;;;;;;8.63;4.50;;;9.20;82.10;;;;;;5036705;28;20064;-66
2022/11/27 08:39:58;;;;;;;9.43;5.10;;;9.40;80.90;;;;;;5040581;28;20090;-66
2022/11/27 08:42:23;;;;;;;9.30;5.63;;;9.70;79.60;;;;;;5021678;28;20151;-65
2022/11/27 08:44:49;;;;;;;10.38;6.90;;;9.20;78.80;;;;;;5034327;28;20029;-67
2022/11/27 08:47:15;;;;;;;14.23;7.82;;;8.60;80.20;;;;;;5038912;28;20646;-65
2022/11/27 08:49:42;;;;;;;13.73;9.25;;;7.60;82.10;;;;;;5020309;28;20041;-65
2022/11/27 08:52:11;;;;;;;13.80;9.73;;;6.60;84.90;;;;;;5034183;28;20026;-65
2022/11/27 08:54:36;;;;;;;12.40;8.10;;;6.40;87.40;;;;;;5031804;28;20101;-66
2022/11/27 08:57:02;;;;;;;12.32;8.40;;;7.60;88.10;;;;;;5034021;28;20175;-66
2022/11/27 08:59:28;;;;;;;6.95;3.83;;;9.30;81.30;;;;;;5034505;28;20100;-67
2022/11/27 09:01:54;;;;;;;9.23;4.97;;;10.20;75.30;;;;;;5036436;28;20468;-67
2022/11/27 09:04:19;;;;;;;5.57;2.65;;;11.10;76.00;;;;;;5036611;28;20025;-66
2022/11/27 09:06:47;;;;;;;13.95;10.07;;;11.40;72.60;;;;;;5031457;28;20029;-66
2022/11/27 09:09:14;;;;;;;15.10;9.50;;;11.10;73.90;;;;;;5035596;28;20018;-66
2022/11/27 09:11:40;;;;;;;9.43;5.88;;;10.50;74.60;;;;;;5033759;28;20044;-67
2022/11/27 09:14:07;;;;;;;8.25;4.47;;;9.20;78.70;;;;;;5034378;28;20029;-67
2022/11/27 09:16:33;;;;;;;8.00;4.40;;;8.20;81.90;;;;;;5017322;28;20033;-67
2022/11/27 09:18:59;;;;;;;8.77;5.20;;;7.30;85.60;;;;;;5034588;28;20092;-67
2022/11/27 09:21:27;;;;;;;11.32;6.25;;;7.30;86.80;;;;;;5035261;28;20481;-66
2022/11/27 09:24:00;;;;;;;12.52;6.68;;;7.30;86.60;;;;;;5016489;28;20034;-66
2022/11/27 09:26:28;;;;;;;9.85;6.00;;;7.10;86.30;;;;;;5013601;28;20367;-67
2022/11/27 09:28:56;;;;;;;11.52;6.65;;;7.10;87.20;;;;;;5006404;28;20048;-67
2022/11/27 09:31:22;;;;;;;11.73;6.93;;;6.50;88.70;;;;;;4997382;28;20359;-66
2022/11/27 09:33:48;;;;;;;12.05;7.78;;;6.20;89.50;;;;;;5010733;28;20022;-67
2022/11/27 09:36:16;;;;;;;12.20;7.00;;;6.20;90.90;;;;;;5003932;28;20038;-68
2022/11/27 09:38:43;;;;;;;10.40;6.97;;;6.30;91.10;;;;;;5004539;28;20029;-68
2022/11/27 09:41:32;;;;;;;11.05;6.97;;;6.50;91.20;;;;;;4998472;28;20022;-67
2022/11/27 09:44:09;;;;;;;9.75;5.40;;;7.30;90.50;;;;;;5001491;28;20022;-68
2022/11/27 09:46:38;;;;;;;10.68;7.18;;;8.20;87.00;;;;;;5003139;28;20030;-67
2022/11/27 09:49:13;;;;;;;21.80;14.27;;;8.50;85.50;;;;;;4998223;28;20088;-67
2022/11/27 09:52:05;;;;;;;14.95;9.60;;;8.40;85.80;;;;;;5000352;28;20085;-68
2022/11/27 09:54:53;;;;;;;15.70;9.82;;;8.50;84.00;;;;;;5005744;28;20022;-68
2022/11/27 09:57:26;;;;;;;15.05;7.90;;;8.60;82.90;;;;;;5007436;28;20087;-68
2022/11/27 09:59:53;;;;;;;8.20;3.45;;;9.10;81.10;;;;;;5005723;28;20057;-68
2022/11/27 10:02:31;;;;;;;4.88;2.30;;;9.40;75.70;;;;;;5006349;28;20022;-68
2022/11/27 10:04:58;;;;;;;3.75;1.50;;;9.90;74.60;;;;;;5006646;28;20030;-68
2022/11/27 10:07:27;;;;;;;3.92;1.20;;;9.90;71.20;;;;;;5012300;28;20038;-68
2022/11/27 10:10:03;;;;;;;3.28;1.50;;;9.80;71.50;;;;;;5002432;28;20042;-68
2022/11/27 10:12:40;;;;;;;4.13;1.45;;;9.90;70.20;;;;;;4995856;28;20041;-68
2022/11/27 10:15:19;;;;;;;5.13;1.40;;;10.00;69.50;;;;;;4996271;28;20044;-68
2022/11/27 10:18:04;;;;;;;2.97;1.30;;;10.10;69.00;;;;;;5008369;28;20300;-68
2022/11/27 10:20:42;;;;;;;2.67;1.13;;;10.00;70.10;;;;;;5003175;28;20105;-68
2022/11/27 10:23:19;;;;;;;2.53;1.10;;;10.30;68.40;;;;;;5017531;28;20041;-68
2022/11/27 10:25:51;;;;;;;2.63;1.10;;;10.90;67.10;;;;;;5030007;28;20358;-69
2022/11/27 10:28:53;;;;;;;2.42;1.20;;;11.30;63.70;;;;;;5031433;28;20049;-68
2022/11/27 10:31:39;;;;;;;2.33;1.00;;;11.20;62.60;;;;;;5030559;28;20034;-68
2022/11/27 10:34:24;;;;;;;2.10;1.08;;;10.90;64.10;;;;;;5003983;28;20431;-68
2022/11/27 10:36:50;;;;;;;;;;;10.70;66.30;;;;;;5014584;28;20432;-68
2022/11/27 10:39:29;;;;;;;12.80;6.35;;;10.20;74.50;;;;;;5016463;28;19916;-68
2022/11/27 10:42:16;;;;;;;14.13;7.50;;;9.30;77.20;;;;;;5033786;28;20029;-67
2022/11/27 10:44:57;;;;;;;10.85;6.88;;;8.60;81.90;;;;;;5046795;28;20036;-70
2022/11/27 10:47:26;;;;;;;15.98;6.70;;;7.90;85.10;;;;;;5033488;28;20029;-69
2022/11/27 10:49:51;;;;;;;10.50;6.50;;;7.40;87.20;;;;;;5032841;28;20033;-69
2022/11/27 10:52:19;;;;;;;10.90;6.53;;;7.00;88.70;;;;;;5025233;28;20040;-69
2022/11/27 10:54:50;;;;;;;13.02;7.25;;;7.20;90.20;;;;;;5030766;28;20030;-69
2022/11/27 10:57:35;;;;;;;16.25;7.82;;;8.20;88.90;;;;;;5008200;28;20034;-69
2022/11/27 11:00:20;;;;;;;11.32;6.60;;;9.10;86.60;;;;;;5024964;28;20091;-69
2022/11/27 11:02:45;;;;;;;5.03;2.45;;;9.70;84.10;;;;;;5031141;28;20025;-69
2022/11/27 11:05:17;;;;;;;12.40;5.63;;;10.20;78.20;;;;;;5031147;28;20326;-69
2022/11/27 11:07:57;;;;;;;49.17;19.48;;;10.70;72.70;;;;;;5015502;28;20048;-70
2022/11/27 11:10:35;;;;;;;9.23;4.85;;;11.10;69.50;;;;;;4999298;28;20033;-71
2022/11/27 11:13:16;;;;;;;17.05;10.40;;;11.60;74.10;;;;;;5033621;28;20061;-69
2022/11/27 11:16:01;;;;;;;16.30;9.10;;;11.50;76.20;;;;;;5029595;28;20318;-69
2022/11/27 11:18:32;;;;;;;13.98;8.63;;;11.00;79.80;;;;;;5048156;28;20029;-69
2022/11/27 11:21:02;;;;;;;13.18;8.55;;;11.10;80.20;;;;;;5038780;28;20113;-69
2022/11/27 11:23:32;;;;;;;10.20;6.80;;;11.60;79.70;;;;;;5004855;28;20045;-68
2022/11/27 11:26:04;;;;;;;11.90;7.05;;;12.20;77.80;;;;;;4998394;28;20076;-69
2022/11/27 11:28:33;;;;;;;10.80;6.35;;;12.00;76.50;;;;;;4994698;28;20038;-69
2022/11/27 11:31:11;;;;;;;8.43;4.80;;;11.40;76.90;;;;;;4994703;28;20058;-69
2022/11/27 11:33:49;;;;;;;10.05;5.25;;;10.80;77.10;;;;;;5017151;28;20037;-69
2022/11/27 11:36:15;;;;;;;9.18;5.15;;;10.00;78.80;;;;;;4996213;28;20048;-68
2022/11/27 11:38:44;;;;;;;8.20;4.70;;;9.60;80.60;;;;;;5014569;28;20418;-69
2022/11/27 11:41:11;;;;;;;8.35;4.50;;;10.00;81.20;;;;;;5012063;28;20026;-69
2022/11/27 11:43:37;;;;;;;7.63;4.20;;;10.60;79.30;;;;;;4996012;28;20021;-69
2022/11/27 11:46:21;;;;;;;7.45;3.60;;;10.80;79.90;;;;;;5000168;28;20032;-69
2022/11/27 11:48:58;;;;;;;9.88;5.53;;;11.20;77.10;;;;;;5019415;28;20415;-69
2022/11/27 11:51:52;;;;;;;9.70;5.90;;;11.10;78.40;;;;;;4985293;28;20034;-69
2022/11/27 11:54:39;;;;;;;9.15;5.43;;;11.00;77.90;;;;;;5007066;28;20030;-69
2022/11/27 11:57:33;;;;;;;11.07;6.55;;;10.60;79.00;;;;;;5016354;28;20030;-69
2022/11/27 12:00:13;;;;;;;13.13;7.18;;;10.40;79.90;;;;;;5009268;28;20514;-69
2022/11/27 12:03:16;;;;;;;11.85;6.50;;;10.20;80.60;;;;;;5022428;28;20029;-69
2022/11/27 12:06:02;;;;;;;11.73;5.90;;;10.10;80.90;;;;;;5015094;28;20030;-69
2022/11/27 12:08:45;;;;;;;9.02;4.70;;;10.30;81.00;;;;;;4994937;28;20339;-69
2022/11/27 12:11:15;;;;;;;7.60;4.10;;;10.60;80.30;;;;;;5015315;28;20048;-69
2022/11/27 12:14:18;;;;;;;8.05;4.50;;;10.90;80.20;;;;;;5028629;28;20037;-69
2022/11/27 12:17:03;;;;;;;7.60;4.32;;;11.10;79.30;;;;;;5003504;28;20325;-69
2022/11/27 12:19:44;;;;;;;;;;;10.60;77.60;;;;;;5018355;28;20021;-69
2022/11/27 12:22:48;;;;;;;4.70;2.60;;;10.50;79.30;;;;;;5018468;28;19917;-69
2022/11/27 12:25:33;;;;;;;4.95;2.50;;;10.60;75.40;;;;;;5017199;28;20119;-69
2022/11/27 12:28:10;;;;;;;7.55;4.10;;;10.80;74.40;;;;;;5020396;28;20071;-69
2022/11/27 12:30:54;;;;;;;6.15;3.30;;;10.70;76.30;;;;;;5036334;28;20368;-69
2022/11/27 12:34:04;;;;;;;11.90;6.55;;;10.40;77.50;;;;;;5036551;28;20041;-69
2022/11/27 12:36:45;;;;;;;7.47;5.03;;;10.20;80.10;;;;;;4999260;28;20042;-68
2022/11/27 12:39:22;;;;;;;11.05;7.28;;;10.50;81.90;;;;;;5048984;28;20049;-69
2022/11/27 12:42:25;;;;;;;10.73;5.70;;;10.70;81.10;;;;;;5020243;28;20058;-69
2022/11/27 12:45:13;;;;;;;7.78;4.50;;;11.00;80.50;;;;;;5032947;28;20040;-68
2022/11/27 12:47:43;;;;;;;19.63;12.00;;;10.90;79.50;;;;;;5029302;28;20030;-68
2022/11/27 12:50:24;;;;;;;9.73;5.63;;;10.50;79.90;;;;;;5017835;28;20080;-69
2022/11/27 12:53:10;;;;;;;8.48;4.93;;;9.90;80.90;;;;;;5052288;28;20024;-69
2022/11/27 12:55:39;;;;;;;7.25;3.85;;;9.70;82.80;;;;;;5038407;28;20458;-68
2022/11/27 12:58:37;;;;;;;9.43;4.53;;;9.40;83.40;;;;;;5032195;28;20029;-69
2022/11/27 13:01:12;;;;;;;8.30;4.35;;;9.70;84.90;;;;;;5016956;28;20026;-68
2022/11/27 13:04:05;;;;;;;8.05;4.05;;;9.90;83.00;;;;;;5017053;28;20026;-69
2022/11/27 13:06:37;;;;;;;8.77;4.65;;;9.70;81.80;;;;;;5032334;28;20113;-68
2022/11/27 13:09:12;;;;;;;7.68;4.53;;;9.60;83.70;;;;;;5016657;28;20104;-68